createdAt,value
2017-11-23T00:01:20.235Z,8.10
2017-11-23T00:03:49.326Z,9.88
2017-11-23T00:06:18.316Z,7.75
2017-11-23T00:08:47.486Z,8.40
2017-11-23T00:11:15.774Z,7.60
2017-11-23T00:13:44.068Z,8.40
2017-11-23T00:16:12.362Z,7.70
2017-11-23T00:18:40.638Z,7.27
2017-11-23T00:21:08.921Z,7.77
2017-11-23T00:23:37.213Z,5.60
2017-11-23T00:26:05.503Z,5.90
2017-11-23T00:28:33.803Z,6.17
2017-11-23T00:31:04.110Z,5.30
2017-11-23T00:33:32.414Z,6.35
2017-11-23T00:36:00.698Z,5.77
2017-11-23T00:38:28.981Z,5.43
2017-11-23T00:40:57.283Z,5.43
2017-11-23T00:43:25.601Z,5.13
2017-11-23T00:45:53.876Z,5.83
2017-11-23T00:48:22.148Z,5.60
2017-11-23T00:50:50.426Z,5.90
2017-11-23T00:53:18.726Z,6.95
2017-11-23T00:55:47.010Z,6.00
2017-11-23T00:58:15.299Z,7.07
2017-11-23T01:00:43.591Z,5.28
2017-11-23T01:03:12.426Z,5.20
2017-11-23T01:05:40.725Z,6.40
2017-11-23T01:08:09.010Z,5.67
2017-11-23T01:10:37.303Z,6.20
2017-11-23T01:13:05.614Z,5.32
2017-11-23T01:15:33.937Z,5.93
2017-11-23T01:18:02.217Z,5.43
2017-11-23T01:20:30.502Z,5.90
2017-11-23T01:22:58.793Z,5.80
2017-11-23T01:25:27.089Z,5.60
2017-11-23T01:27:56.135Z,5.37
2017-11-23T01:30:24.430Z,5.45
2017-11-23T01:32:52.723Z,5.20
2017-11-23T01:35:21.017Z,5.35
2017-11-23T01:37:50.058Z,5.67
2017-11-23T01:40:18.342Z,4.90
2017-11-23T01:42:46.630Z,5.80
2017-11-23T01:45:14.918Z,6.00
2017-11-23T01:47:43.213Z,8.67
2017-11-23T01:50:11.512Z,6.37
2017-11-23T01:52:39.817Z,6.83
2017-11-23T01:55:09.259Z,7.70
2017-11-23T01:57:37.576Z,7.00
2017-11-23T02:00:05.863Z,7.10
2017-11-23T02:02:34.154Z,5.87
2017-11-23T02:05:02.722Z,7.50
2017-11-23T02:07:31.002Z,5.17
2017-11-23T02:09:59.283Z,5.33
2017-11-23T02:12:27.585Z,5.90
2017-11-23T02:14:56.290Z,6.73
2017-11-23T02:17:24.574Z,5.25
2017-11-23T02:19:53.619Z,5.90
2017-11-23T02:22:21.902Z,5.50
2017-11-23T02:24:50.194Z,5.77
2017-11-23T02:27:18.489Z,5.90
2017-11-23T02:29:47.286Z,7.70
2017-11-23T02:32:15.581Z,6.93
2017-11-23T02:34:43.870Z,5.83
2017-11-23T02:37:12.169Z,5.07
2017-11-23T02:39:40.495Z,5.05
2017-11-23T02:42:09.585Z,5.07
2017-11-23T02:44:37.896Z,5.40
2017-11-23T02:47:06.195Z,7.53
2017-11-23T02:49:35.606Z,5.65
2017-11-23T02:52:03.917Z,4.90
2017-11-23T02:54:32.970Z,4.53
2017-11-23T02:57:01.264Z,4.90
2017-11-23T02:59:30.525Z,4.12
2017-11-23T03:01:58.803Z,5.00
2017-11-23T03:04:27.083Z,4.90
2017-11-23T03:06:55.364Z,4.63
2017-11-23T03:09:23.657Z,5.55
2017-11-23T03:11:52.386Z,4.33
2017-11-23T03:14:20.675Z,4.80
2017-11-23T03:16:48.965Z,5.50
2017-11-23T03:19:17.249Z,4.10
2017-11-23T03:21:45.539Z,5.80
2017-11-23T03:24:13.858Z,4.80
2017-11-23T03:26:42.914Z,6.20
2017-11-23T03:29:13.240Z,5.57
2017-11-23T03:31:41.531Z,5.70
2017-11-23T03:34:09.824Z,6.43
2017-11-23T03:36:38.095Z,6.90
2017-11-23T03:39:06.382Z,5.80
2017-11-23T03:41:34.679Z,6.30
2017-11-23T03:44:02.943Z,4.90
2017-11-23T03:46:31.990Z,5.30
2017-11-23T03:49:00.269Z,5.83
2017-11-23T03:51:28.566Z,5.13
2017-11-23T03:53:56.866Z,4.20
2017-11-23T03:56:25.924Z,5.00
2017-11-23T03:58:54.215Z,5.00
2017-11-23T04:01:22.567Z,5.67
2017-11-23T04:03:50.885Z,6.35
2017-11-23T04:06:19.168Z,6.80
2017-11-23T04:08:47.455Z,5.40
2017-11-23T04:11:16.495Z,5.47
2017-11-23T04:13:44.797Z,5.87
2017-11-23T04:16:13.090Z,7.10
2017-11-23T04:18:41.393Z,5.50
2017-11-23T04:21:09.682Z,4.40
2017-11-23T04:23:37.994Z,5.40
2017-11-23T04:26:06.289Z,7.70
2017-11-23T04:28:34.600Z,6.90
2017-11-23T04:31:02.889Z,5.17
2017-11-23T04:33:31.888Z,5.87
2017-11-23T04:36:00.167Z,6.57
2017-11-23T04:38:28.462Z,4.70
2017-11-23T04:40:56.804Z,4.60
2017-11-23T04:43:25.090Z,5.40
2017-11-23T04:45:53.366Z,4.47
2017-11-23T04:48:21.646Z,5.30
2017-11-23T04:50:49.958Z,5.30
2017-11-23T04:53:18.246Z,4.50
2017-11-23T04:55:46.530Z,4.80
2017-11-23T04:58:15.756Z,4.17
2017-11-23T05:00:44.082Z,4.43
2017-11-23T05:03:12.378Z,3.80
2017-11-23T05:05:42.338Z,3.40
2017-11-23T05:08:10.621Z,4.37
2017-11-23T05:10:38.946Z,4.40
2017-11-23T05:13:07.238Z,5.20
2017-11-23T05:15:36.974Z,5.20
2017-11-23T05:18:05.258Z,4.20
2017-11-23T05:20:33.556Z,4.67
2017-11-23T05:23:01.853Z,4.10
2017-11-23T05:25:30.145Z,4.30
2017-11-23T05:27:59.203Z,4.30
2017-11-23T05:30:27.493Z,4.50
2017-11-23T05:32:55.811Z,4.80
2017-11-23T05:35:24.103Z,4.30
2017-11-23T05:37:52.386Z,4.50
2017-11-23T05:40:24.280Z,3.55
2017-11-23T05:42:52.587Z,4.00
2017-11-23T05:45:21.629Z,4.05
2017-11-23T05:47:49.918Z,4.30
2017-11-23T05:50:18.211Z,3.90
2017-11-23T05:52:46.498Z,4.03
2017-11-23T05:55:15.567Z,3.63
2017-11-23T05:57:44.670Z,3.30
2017-11-23T06:00:12.966Z,5.13
2017-11-23T06:02:41.247Z,3.90
2017-11-23T06:05:10.290Z,5.00
2017-11-23T06:07:38.585Z,4.20
2017-11-23T06:10:06.889Z,5.17
2017-11-23T06:12:35.958Z,4.33
2017-11-23T06:15:04.250Z,4.10
2017-11-23T06:17:32.535Z,4.40
2017-11-23T06:20:01.155Z,5.50
2017-11-23T06:22:29.447Z,4.70
2017-11-23T06:24:57.737Z,6.10
2017-11-23T06:27:26.017Z,5.43
2017-11-23T06:29:54.326Z,4.97
2017-11-23T06:32:22.619Z,5.07
2017-11-23T06:34:51.696Z,6.43
2017-11-23T06:37:20.918Z,8.07
2017-11-23T06:39:49.193Z,4.23
2017-11-23T06:42:18.246Z,4.82
2017-11-23T06:44:46.538Z,4.73
2017-11-23T06:47:14.841Z,5.77
2017-11-23T06:49:43.142Z,3.97
2017-11-23T06:52:11.438Z,4.20
2017-11-23T06:54:39.754Z,5.20
2017-11-23T06:57:08.038Z,4.33
2017-11-23T06:59:37.097Z,4.57
2017-11-23T07:02:05.382Z,4.50
2017-11-23T07:04:33.679Z,3.90
2017-11-23T07:07:02.754Z,3.83
2017-11-23T07:09:31.047Z,4.20
2017-11-23T07:12:00.687Z,4.43
2017-11-23T07:14:28.983Z,5.03
2017-11-23T07:16:57.287Z,4.30
2017-11-23T07:19:25.582Z,5.62
2017-11-23T07:21:53.874Z,5.10
2017-11-23T07:24:22.958Z,4.93
2017-11-23T07:26:52.017Z,4.33
2017-11-23T07:29:21.559Z,4.40
2017-11-23T07:31:49.847Z,4.23
2017-11-23T07:34:18.141Z,4.07
2017-11-23T07:36:47.686Z,4.30
2017-11-23T07:39:15.961Z,4.63
2017-11-23T07:41:44.259Z,4.43
2017-11-23T07:44:12.540Z,4.40
2017-11-23T07:46:41.897Z,3.60
2017-11-23T07:49:10.193Z,4.00
2017-11-23T07:51:38.478Z,3.60
2017-11-23T07:54:06.781Z,4.17
2017-11-23T07:56:35.834Z,3.97
2017-11-23T07:59:04.835Z,4.00
2017-11-23T08:01:33.123Z,3.97
2017-11-23T08:04:01.414Z,4.90
2017-11-23T08:06:29.703Z,4.20
2017-11-23T08:08:58.000Z,4.53
2017-11-23T08:11:26.996Z,4.90
2017-11-23T08:13:55.282Z,5.03
2017-11-23T08:16:23.583Z,7.20
2017-11-23T08:18:51.873Z,5.18
2017-11-23T08:21:20.161Z,5.10
2017-11-23T08:23:49.230Z,5.00
2017-11-23T08:26:17.514Z,6.10
2017-11-23T08:28:45.848Z,5.00
2017-11-23T08:31:14.145Z,5.57
2017-11-23T08:33:42.436Z,5.75
2017-11-23T08:36:10.720Z,5.47
2017-11-23T08:38:39.014Z,6.00
2017-11-23T08:41:07.310Z,6.60
2017-11-23T08:43:35.602Z,5.50
2017-11-23T08:46:03.891Z,5.10
2017-11-23T08:48:32.194Z,4.73
2017-11-23T08:51:00.490Z,5.30
2017-11-23T08:53:32.618Z,5.80
2017-11-23T08:56:02.956Z,4.57
2017-11-23T08:58:31.233Z,4.37
2017-11-23T09:01:03.246Z,5.70
2017-11-23T09:03:31.863Z,4.62
2017-11-23T09:06:00.190Z,4.70
2017-11-23T09:08:28.468Z,4.50
2017-11-23T09:10:56.983Z,5.33
2017-11-23T09:13:26.511Z,4.83
2017-11-23T09:15:54.790Z,4.40
2017-11-23T09:18:23.126Z,4.83
2017-11-23T09:20:51.435Z,4.18
2017-11-23T09:23:19.734Z,4.30
2017-11-23T09:25:48.053Z,4.83
2017-11-23T09:28:16.338Z,4.50
2017-11-23T09:30:44.634Z,4.30
2017-11-23T09:33:12.934Z,4.20
2017-11-23T09:35:41.213Z,4.17
2017-11-23T09:38:09.526Z,3.90
2017-11-23T09:40:37.810Z,3.73
2017-11-23T09:43:07.005Z,3.60
2017-11-23T09:45:35.319Z,4.18
2017-11-23T09:48:04.623Z,4.10
2017-11-23T09:50:32.916Z,4.47
2017-11-23T09:53:01.201Z,4.13
2017-11-23T09:55:29.491Z,4.07
2017-11-23T09:57:57.778Z,4.20
2017-11-23T10:00:26.092Z,3.53
2017-11-23T10:02:54.507Z,3.40
2017-11-23T10:05:22.838Z,3.30
2017-11-23T10:07:51.153Z,3.57
2017-11-23T10:10:19.451Z,3.03
2017-11-23T10:12:47.763Z,2.63
2017-11-23T10:15:16.061Z,3.00
2017-11-23T10:17:44.357Z,2.65
2017-11-23T10:20:12.651Z,2.67
2017-11-23T10:22:40.953Z,2.40
2017-11-23T10:25:09.262Z,2.83
2017-11-23T10:27:37.570Z,2.62
2017-11-23T10:30:05.859Z,2.60
2017-11-23T10:32:34.169Z,2.73
2017-11-23T10:35:02.465Z,3.03
2017-11-23T10:37:36.284Z,2.93
2017-11-23T10:40:04.582Z,3.30
2017-11-23T10:42:32.895Z,2.70
2017-11-23T10:45:01.209Z,2.80
2017-11-23T10:47:29.518Z,3.55
2017-11-23T10:49:57.831Z,2.90
2017-11-23T10:52:26.893Z,2.80
2017-11-23T10:54:55.190Z,2.63
2017-11-23T10:57:23.494Z,2.40
2017-11-23T10:59:51.790Z,3.07
2017-11-23T11:02:20.082Z,2.30
2017-11-23T11:04:48.379Z,2.50
2017-11-23T11:07:16.689Z,2.30
2017-11-23T11:09:44.983Z,3.10
2017-11-23T11:12:13.281Z,2.80
2017-11-23T11:14:41.571Z,3.33
2017-11-23T11:17:09.873Z,2.33
2017-11-23T11:19:38.171Z,2.62
2017-11-23T11:22:06.477Z,4.40
2017-11-23T11:24:35.543Z,2.57
2017-11-23T11:27:03.863Z,2.73
2017-11-23T11:29:32.176Z,2.60
2017-11-23T11:32:00.482Z,2.85
2017-11-23T11:34:28.782Z,2.70
2017-11-23T11:36:57.088Z,2.37
2017-11-23T11:39:25.391Z,2.20
2017-11-23T11:41:53.688Z,4.03
2017-11-23T11:44:21.987Z,2.80
2017-11-23T11:46:50.282Z,2.80
2017-11-23T11:49:18.587Z,2.33
2017-11-23T11:51:46.886Z,2.67
2017-11-23T11:54:15.946Z,2.00
2017-11-23T11:56:44.262Z,2.47
2017-11-23T11:59:12.568Z,2.20
2017-11-23T12:01:40.879Z,2.70
2017-11-23T12:04:09.189Z,2.40
2017-11-23T12:06:37.494Z,2.30
2017-11-23T12:09:05.787Z,1.73
2017-11-23T12:11:34.083Z,2.20
2017-11-23T12:14:20.796Z,2.40
2017-11-23T12:17:02.562Z,2.13
2017-11-23T12:19:48.547Z,2.20
2017-11-23T12:28:58.467Z,2.53
2017-11-23T12:31:27.093Z,2.30
2017-11-23T12:33:55.390Z,2.40
2017-11-23T12:36:23.679Z,1.97
2017-11-23T12:38:51.977Z,2.50
2017-11-23T12:41:20.286Z,2.23
2017-11-23T12:43:48.578Z,2.10
2017-11-23T12:46:16.878Z,2.20
2017-11-23T12:48:45.643Z,2.40
2017-11-23T12:51:13.943Z,2.30
2017-11-23T12:53:42.267Z,2.45
2017-11-23T12:56:10.566Z,1.90
2017-11-23T12:58:38.865Z,2.10
2017-11-23T13:01:07.606Z,2.30
2017-11-23T13:03:35.907Z,2.15
2017-11-23T13:06:04.210Z,1.83
2017-11-23T13:08:33.370Z,2.10
2017-11-23T13:11:02.435Z,2.10
2017-11-23T13:13:30.769Z,2.40
2017-11-23T13:15:59.067Z,1.80
2017-11-23T13:18:27.386Z,2.37
2017-11-23T13:20:56.462Z,2.27
2017-11-23T13:23:24.774Z,2.50
2017-11-23T13:25:53.858Z,2.07
2017-11-23T13:28:22.922Z,2.57
2017-11-23T13:30:51.211Z,2.40
2017-11-23T13:33:19.525Z,2.57
2017-11-23T13:35:47.818Z,2.47
2017-11-23T13:38:16.103Z,2.33
2017-11-23T13:40:44.401Z,2.30
2017-11-23T13:43:12.694Z,1.80
2017-11-23T13:45:41.013Z,2.40
2017-11-23T13:48:09.307Z,2.20
2017-11-23T13:50:37.599Z,2.20
2017-11-23T13:53:05.898Z,2.27
2017-11-23T13:55:34.213Z,2.03
2017-11-23T13:58:02.530Z,1.87
2017-11-23T14:00:30.812Z,1.85
2017-11-23T14:02:59.120Z,1.80
2017-11-23T14:05:28.228Z,1.97
2017-11-23T14:07:56.842Z,1.70
2017-11-23T14:10:25.138Z,1.97
2017-11-23T14:12:53.470Z,2.08
2017-11-23T14:15:21.765Z,2.30
2017-11-23T14:17:50.089Z,1.73
2017-11-23T14:20:18.385Z,1.70
2017-11-23T14:22:47.488Z,2.60
2017-11-23T14:25:15.810Z,1.20
2017-11-23T14:27:44.667Z,2.03
2017-11-23T14:30:12.963Z,1.33
2017-11-23T14:32:41.253Z,1.23
2017-11-23T14:35:09.537Z,1.40
2017-11-23T14:37:37.869Z,1.97
2017-11-23T14:40:06.212Z,3.83
2017-11-23T14:42:34.558Z,1.70
2017-11-23T14:45:02.890Z,1.77
2017-11-23T14:47:31.244Z,1.80
2017-11-23T14:49:59.872Z,1.57
2017-11-23T14:52:28.181Z,1.43
2017-11-23T14:54:56.465Z,1.55
2017-11-23T14:57:25.366Z,1.80
2017-11-23T14:59:53.647Z,1.35
2017-11-23T15:02:21.952Z,1.97
2017-11-23T15:04:51.013Z,1.40
2017-11-23T15:07:19.301Z,1.47
2017-11-23T15:09:47.607Z,1.60
2017-11-23T15:12:15.914Z,1.40
2017-11-23T15:14:44.206Z,1.80
2017-11-23T15:17:12.506Z,1.48
2017-11-23T15:19:40.801Z,2.93
2017-11-23T15:22:09.852Z,1.63
2017-11-23T15:24:38.132Z,1.43
2017-11-23T15:27:06.438Z,1.37
2017-11-23T15:29:34.746Z,1.60
2017-11-23T15:32:03.027Z,1.60
2017-11-23T15:34:31.327Z,1.33
2017-11-23T15:36:59.622Z,1.70
2017-11-23T15:39:27.919Z,1.63
2017-11-23T15:41:56.218Z,1.70
2017-11-23T15:44:24.510Z,1.83
2017-11-23T15:46:52.807Z,1.67
2017-11-23T15:49:21.099Z,1.87
2017-11-23T15:51:49.385Z,1.67
2017-11-23T15:54:17.705Z,1.80
2017-11-23T15:56:47.799Z,1.53
2017-11-23T15:59:16.090Z,1.50
2017-11-23T16:01:45.157Z,1.53
2017-11-23T16:04:13.445Z,1.50
2017-11-23T16:06:42.322Z,1.63
2017-11-23T16:09:10.622Z,1.50
2017-11-23T16:11:38.933Z,1.40
2017-11-23T16:14:07.218Z,2.60
2017-11-23T16:16:35.522Z,1.62
2017-11-23T16:19:03.819Z,1.60
2017-11-23T16:21:32.894Z,1.70
2017-11-23T16:24:01.199Z,1.40
2017-11-23T16:26:29.495Z,1.60
2017-11-23T16:28:57.777Z,1.37
2017-11-23T16:31:26.090Z,1.73
2017-11-23T16:33:54.398Z,1.40
2017-11-23T16:36:22.703Z,2.10
2017-11-23T16:38:53.305Z,1.73
2017-11-23T16:41:22.395Z,1.50
2017-11-23T16:44:06.471Z,1.47
2017-11-23T16:46:41.067Z,1.40
2017-11-23T16:49:14.886Z,1.43
2017-11-23T16:51:46.370Z,1.87
2017-11-23T16:54:20.290Z,1.73
2017-11-23T16:56:54.115Z,2.30
2017-11-23T17:02:43.694Z,1.70
2017-11-23T17:05:17.525Z,2.23
2017-11-23T17:07:51.504Z,1.80
2017-11-23T17:10:25.360Z,1.43
2017-11-23T17:13:00.843Z,2.00
2017-11-23T17:18:42.369Z,1.70
2017-11-23T17:21:10.659Z,1.40
2017-11-23T17:23:38.955Z,1.60
2017-11-23T17:26:07.254Z,1.70
2017-11-23T17:28:35.550Z,1.80
2017-11-23T17:31:04.422Z,1.30
2017-11-23T17:33:33.481Z,1.97
2017-11-23T17:36:01.910Z,2.87
2017-11-23T17:38:30.215Z,2.70
2017-11-23T17:40:58.561Z,1.52
2017-11-23T17:43:27.175Z,1.77
2017-11-23T17:45:55.513Z,1.45
2017-11-23T17:48:24.426Z,1.67
2017-11-23T17:50:52.912Z,1.20
2017-11-23T17:53:21.476Z,1.90
2017-11-23T17:55:50.198Z,1.90
2017-11-23T17:58:18.979Z,1.43
2017-11-23T18:00:47.362Z,1.70
2017-11-23T18:03:15.803Z,1.93
2017-11-23T18:05:44.669Z,1.30
2017-11-23T18:08:13.613Z,1.50
2017-11-23T18:10:42.173Z,1.40
2017-11-23T18:13:10.901Z,1.50
2017-11-23T18:15:41.435Z,1.17
2017-11-23T18:18:11.191Z,1.20
2017-11-23T18:20:40.470Z,1.60
2017-11-23T18:23:09.223Z,1.50
2017-11-23T18:25:38.608Z,1.20
2017-11-23T18:28:07.200Z,1.10
2017-11-23T18:30:36.330Z,1.70
2017-11-23T18:33:05.637Z,1.50
2017-11-23T18:35:35.495Z,2.10
2017-11-23T18:38:05.137Z,5.07
2017-11-23T18:40:34.856Z,2.00
2017-11-23T18:43:04.457Z,1.87
2017-11-23T18:45:34.272Z,1.60
2017-11-23T18:48:04.085Z,1.50
2017-11-23T18:50:33.768Z,1.67
2017-11-23T18:53:04.254Z,1.73
2017-11-23T18:55:34.021Z,1.40
2017-11-23T18:58:03.756Z,1.70
2017-11-23T19:00:33.489Z,1.90
2017-11-23T19:03:03.353Z,1.80
2017-11-23T19:05:33.130Z,2.00
2017-11-23T19:08:03.790Z,1.85
2017-11-23T19:10:33.646Z,1.60
2017-11-23T19:13:03.567Z,2.10
2017-11-23T19:15:33.423Z,1.70
2017-11-23T19:18:03.425Z,3.17
2017-11-23T19:20:33.374Z,2.30
2017-11-23T19:23:03.218Z,2.20
2017-11-23T19:25:33.157Z,1.40
2017-11-23T19:28:03.007Z,1.10
2017-11-23T19:30:32.804Z,1.20
2017-11-23T19:33:02.560Z,1.40
2017-11-23T19:35:32.649Z,1.50
2017-11-23T19:38:02.548Z,1.20
2017-11-23T19:40:32.506Z,1.70
2017-11-23T19:43:02.391Z,1.93
2017-11-23T19:45:32.244Z,1.80
2017-11-23T19:48:02.962Z,1.62
2017-11-23T19:50:32.863Z,1.70
2017-11-23T19:53:02.696Z,2.03
2017-11-23T19:55:32.540Z,4.90
2017-11-23T19:58:02.484Z,1.30
2017-11-23T20:00:32.368Z,1.10
2017-11-23T20:03:02.217Z,1.10
2017-11-23T20:05:37.649Z,1.50
2017-11-23T20:08:07.490Z,1.48
2017-11-23T20:10:37.297Z,3.00
2017-11-23T20:13:08.249Z,1.73
2017-11-23T20:15:38.235Z,1.80
2017-11-23T20:18:08.046Z,1.20
2017-11-23T20:20:37.841Z,1.55
2017-11-23T20:23:07.651Z,1.67
2017-11-23T20:25:37.407Z,1.70
2017-11-23T20:28:07.227Z,1.30
2017-11-23T20:30:37.065Z,1.30
2017-11-23T20:33:06.878Z,1.37
2017-11-23T20:35:36.703Z,1.87
2017-11-23T20:38:07.379Z,1.90
2017-11-23T20:40:37.176Z,2.10
2017-11-23T20:43:07.033Z,1.90
2017-11-23T20:45:36.868Z,1.70
2017-11-23T20:48:07.536Z,1.62
2017-11-23T20:50:37.823Z,1.60
2017-11-23T20:53:07.614Z,1.63
2017-11-23T20:55:37.527Z,1.50
2017-11-23T20:58:07.832Z,1.33
2017-11-23T21:00:37.730Z,1.40
2017-11-23T21:03:07.725Z,1.30
2017-11-23T21:05:38.337Z,1.60
2017-11-23T21:08:08.053Z,1.30
2017-11-23T21:10:37.780Z,3.25
2017-11-23T21:13:08.478Z,2.60
2017-11-23T21:15:38.258Z,1.83
2017-11-23T21:18:08.204Z,1.87
2017-11-23T21:20:37.968Z,2.20
2017-11-23T21:23:07.656Z,4.67
2017-11-23T21:25:38.120Z,2.10
2017-11-23T21:28:08.695Z,2.47
2017-11-23T21:30:38.257Z,2.13
2017-11-23T21:33:07.973Z,8.53
2017-11-23T21:35:37.153Z,2.30
2017-11-23T21:38:05.918Z,5.07
2017-11-23T21:40:34.290Z,4.10
2017-11-23T21:43:02.586Z,2.70
2017-11-23T21:45:30.939Z,3.80
2017-11-23T21:47:59.245Z,1.43
2017-11-23T21:50:27.631Z,1.47
2017-11-23T21:52:55.937Z,1.40
2017-11-23T21:55:24.254Z,2.80
2017-11-23T21:57:52.553Z,2.50
2017-11-23T22:00:20.841Z,1.33
2017-11-23T22:02:49.150Z,0.70
2017-11-23T22:05:18.203Z,0.43
2017-11-23T22:07:46.503Z,0.50
2017-11-23T22:10:14.798Z,0.40
2017-11-23T22:12:43.089Z,0.57
2017-11-23T22:15:11.395Z,0.60
2017-11-23T22:17:39.677Z,0.70
2017-11-23T22:20:08.733Z,0.40
2017-11-23T22:22:37.792Z,0.90
2017-11-23T22:25:06.089Z,0.50
2017-11-23T22:27:35.142Z,0.40
2017-11-23T22:30:03.433Z,0.60
2017-11-23T22:32:31.712Z,0.60
2017-11-23T22:35:00.022Z,0.50
2017-11-23T22:37:28.300Z,0.60
2017-11-23T22:39:57.357Z,0.90
2017-11-23T22:42:26.611Z,0.90
2017-11-23T22:44:54.910Z,0.80
2017-11-23T22:47:23.194Z,1.37
2017-11-23T22:49:51.507Z,1.20
2017-11-23T22:52:19.798Z,0.97
2017-11-23T22:54:48.850Z,1.50
2017-11-23T22:57:17.141Z,1.03
2017-11-23T22:59:45.485Z,0.80
2017-11-23T23:02:13.761Z,1.20
2017-11-23T23:04:42.066Z,1.00
2017-11-23T23:07:10.370Z,0.80
2017-11-23T23:09:39.441Z,1.00
2017-11-23T23:12:08.524Z,0.90
2017-11-23T23:14:36.827Z,1.10
2017-11-23T23:17:05.147Z,1.53
2017-11-23T23:19:33.434Z,0.88
2017-11-23T23:22:01.742Z,1.20
2017-11-23T23:24:30.050Z,1.10
2017-11-23T23:26:58.361Z,1.60
2017-11-23T23:29:26.646Z,1.37
2017-11-23T23:31:54.941Z,1.07
2017-11-23T23:34:23.225Z,1.57
2017-11-23T23:36:51.529Z,1.00
2017-11-23T23:39:20.592Z,1.10
2017-11-23T23:41:48.876Z,1.97
2017-11-23T23:44:17.164Z,1.13
2017-11-23T23:46:46.041Z,1.48
2017-11-23T23:49:14.329Z,1.10
2017-11-23T23:51:42.606Z,1.20
2017-11-23T23:54:10.887Z,1.00
2017-11-23T23:56:39.167Z,1.10
2017-11-23T23:59:08.302Z,1.00
